Terminal Aerodrome Forecast
Issued by NWS

Home | Current Version | Previous Version | Text Only | Print | Product List | Glossary On
Versions: 1 2 3 4 5 6 7 8 9 10 11 12 13 14 15 16 17 18 19 20 21 22 23 24 25 26 27 28
557
FTUS45 KPSR 220234 AAA
TAFPHX
TAF AMD
KPHX 220234Z 2203/2224 26005KT P6SM FEW050
     FM220500 12005KT P6SM SCT120
     FM221200 11005KT P6SM BKN110=

USA.gov is the U.S. government's official web portal to all federal, state and local government web resources and services.